Time;durP1;ratioP1;P1;durP2;ratioP2;P2;SDS_P1;SDS_P2;PMS_P1;PMS_P2;Temp;Humidity;BMP_temperature;BMP_pressure;BME280_temperature;BME280_humidity;BME280_pressure;Samples;Min_cycle;Max_cycle;Signal;HPM_P1;HPM_P2
2022/07/30 00:00:39;;;;;;;;;;;;;;;29.99;47.74;98516.47;2077358;28;19933;-49
2022/07/30 00:01:41;;;;;;;;;;;;;;;29.97;47.88;98521.38;2078282;28;19933;-50
2022/07/30 00:02:41;;;;;;;;;;;;;;;30.00;48.13;98518.09;2075869;28;19928;-52
2022/07/30 00:03:43;;;;;;;;;;;;;;;30.00;48.23;98509.06;2077811;28;19933;-52
2022/07/30 00:04:43;;;;;;;;;;;;;;;29.98;48.27;98509.38;2074741;28;19944;-51
2022/07/30 00:05:45;;;;;;;;;;;;;;;29.99;48.27;98505.53;2077702;28;19950;-49
2022/07/30 00:06:46;;;;;;;;;;;;;;;30.02;47.92;98510.44;2082012;28;20338;-52
2022/07/30 00:07:47;;;;;;;;;;;;;;;30.01;48.03;98508.81;2074558;28;19933;-51
2022/07/30 00:08:49;;;;;;;;;;;;;;;30.00;48.22;98507.16;2077257;28;20598;-53
2022/07/30 00:09:49;;;;;;;;;;;;;;;30.02;47.85;98504.97;2080922;28;19979;-52
2022/07/30 00:10:52;;;;;;;;;;;;;;;30.03;47.88;98505.78;2078344;28;19929;-51
2022/07/30 00:11:53;;;;;;;;;;;;;;;29.99;47.96;98508.25;2080606;28;19929;-53
2022/07/30 00:12:55;;;;;;;;;;;;;;;30.01;47.80;98502.53;2077158;28;19935;-53
2022/07/30 00:13:56;;;;;;;;;;;;;;;29.99;48.13;98510.19;2080805;28;19951;-50
2022/07/30 00:14:57;;;;;;;;;;;;;;;29.99;47.94;98508.25;2076234;28;20425;-51
2022/07/30 00:15:58;;;;;;;;;;;;;;;30.00;47.73;98514.53;2077376;28;19940;-52
2022/07/30 00:17:00;;;;;;;;;;;;;;;30.01;47.96;98508.00;2076033;28;19929;-52
2022/07/30 00:18:00;;;;;;;;;;;;;;;29.97;48.09;98506.91;2080651;28;19928;-52
2022/07/30 00:19:02;;;;;;;;;;;;;;;29.98;47.98;98512.09;2082614;28;19935;-48
2022/07/30 00:20:03;;;;;;;;;;;;;;;30.01;48.06;98508.81;2074481;28;20019;-51
2022/07/30 00:21:04;;;;;;;;;;;;;;;30.01;48.17;98514.28;2075610;28;19933;-53
2022/07/30 00:22:05;;;;;;;;;;;;;;;30.01;47.95;98502.53;2077745;28;19940;-53
2022/07/30 00:23:06;;;;;;;;;;;;;;;29.99;48.08;98505.53;2077048;28;20055;-51
2022/07/30 00:24:07;;;;;;;;;;;;;;;29.98;47.99;98512.09;2078694;28;20039;-54
2022/07/30 00:25:09;;;;;;;;;;;;;;;29.98;48.26;98508.56;2077036;28;20504;-50
2022/07/30 00:26:11;;;;;;;;;;;;;;;29.99;48.19;98505.53;2077947;28;20558;-52
2022/07/30 00:27:13;;;;;;;;;;;;;;;30.00;48.40;98503.59;2083498;28;19929;-50
2022/07/30 00:28:13;;;;;;;;;;;;;;;29.99;48.57;98501.97;2078576;28;19939;-55
2022/07/30 00:29:15;;;;;;;;;;;;;;;29.96;48.52;98497.88;2075499;28;20143;-50
2022/07/30 00:30:16;;;;;;;;;;;;;;;29.99;48.34;98507.44;2079758;28;19928;-54
2022/07/30 00:31:17;;;;;;;;;;;;;;;29.95;48.41;98501.75;2076800;28;19929;-51
2022/07/30 00:32:18;;;;;;;;;;;;;;;29.94;48.60;98500.09;2075698;28;20938;-53
2022/07/30 00:33:19;;;;;;;;;;;;;;;29.93;48.69;98501.19;2077662;28;19956;-53
2022/07/30 00:34:20;;;;;;;;;;;;;;;29.95;48.66;98493.53;2073653;28;20040;-53
2022/07/30 00:35:22;;;;;;;;;;;;;;;29.92;48.41;98499.56;2078329;28;20709;-52
2022/07/30 00:36:22;;;;;;;;;;;;;;;29.93;48.40;98493.00;2074255;28;19929;-55
2022/07/30 00:37:24;;;;;;;;;;;;;;;29.94;48.58;98497.34;2078209;28;20279;-51
2022/07/30 00:38:24;;;;;;;;;;;;;;;29.94;48.43;98496.53;2075030;28;19968;-51
2022/07/30 00:39:28;;;;;;;;;;;;;;;29.93;48.46;98495.72;2073603;28;19935;-54
2022/07/30 00:40:28;;;;;;;;;;;;;;;29.94;48.56;98494.63;2078427;28;19943;-55
2022/07/30 00:41:31;;;;;;;;;;;;;;;29.93;48.77;98493.00;2078048;28;19932;-52
2022/07/30 00:42:36;;;;;;;;;;;;;;;29.96;48.67;98497.06;2073755;28;20567;-53
2022/07/30 00:43:37;;;;;;;;;;;;;;;29.94;49.01;98491.88;2073624;28;20005;-51
2022/07/30 00:44:38;;;;;;;;;;;;;;;29.94;48.72;98491.88;2077470;28;19940;-52
2022/07/30 00:45:40;;;;;;;;;;;;;;;29.93;49.04;98490.25;2076254;28;20027;-56
2022/07/30 00:46:40;;;;;;;;;;;;;;;29.91;49.21;98492.44;2080412;28;19929;-55
2022/07/30 00:47:42;;;;;;;;;;;;;;;29.93;49.22;98490.25;2079003;28;20016;-55
2022/07/30 00:48:44;;;;;;;;;;;;;;;29.94;49.03;98491.06;2080418;28;19935;-56
2022/07/30 00:49:45;;;;;;;;;;;;;;;29.91;49.01;98500.66;2080689;28;19982;-55
2022/07/30 00:50:46;;;;;;;;;;;;;;;29.93;49.03;98501.19;2076794;28;19929;-51
2022/07/30 00:51:47;;;;;;;;;;;;;;;29.90;49.21;98495.47;2078568;28;20508;-54
2022/07/30 00:52:48;;;;;;;;;;;;;;;29.90;49.30;98492.75;2076882;28;19932;-55
2022/07/30 00:53:49;;;;;;;;;;;;;;;29.93;49.19;98501.19;2078736;28;19935;-53
2022/07/30 00:54:50;;;;;;;;;;;;;;;29.91;49.37;98495.19;2076056;28;19925;-56
2022/07/30 00:55:51;;;;;;;;;;;;;;;29.89;49.60;98504.75;2075466;28;20002;-55
2022/07/30 00:56:54;;;;;;;;;;;;;;;29.88;49.44;98503.13;2076973;28;19932;-52
2022/07/30 00:57:55;;;;;;;;;;;;;;;29.88;49.24;98498.47;2079042;28;20093;-53
2022/07/30 00:58:56;;;;;;;;;;;;;;;29.88;49.50;98506.69;2077950;28;20425;-52
2022/07/30 00:59:58;;;;;;;;;;;;;;;29.89;49.17;98497.38;2076577;28;19932;-54
2022/07/30 01:00:58;;;;;;;;;;;;;;;29.90;49.30;98509.16;2076823;28;20783;-51
2022/07/30 01:02:00;;;;;;;;;;;;;;;29.92;49.33;98496.84;2075649;28;19935;-51
2022/07/30 01:03:03;;;;;;;;;;;;;;;29.93;49.35;98506.66;2074001;28;19955;-56
2022/07/30 01:04:06;;;;;;;;;;;;;;;29.93;49.03;98495.72;2076075;28;19928;-52
2022/07/30 01:05:08;;;;;;;;;;;;;;;29.92;49.21;98505.03;2078481;28;20227;-53
2022/07/30 01:06:09;;;;;;;;;;;;;;;29.88;49.52;98498.47;2080585;28;19936;-52
2022/07/30 01:07:11;;;;;;;;;;;;;;;29.86;49.50;98502.59;2078252;28;19925;-54
2022/07/30 01:08:11;;;;;;;;;;;;;;;29.90;49.44;98496.28;2075341;28;19928;-52
2022/07/30 01:09:13;;;;;;;;;;;;;;;29.90;49.29;98490.00;2078321;28;19929;-50
2022/07/30 01:10:15;;;;;;;;;;;;;;;29.89;49.23;98500.09;2074319;28;20310;-55
2022/07/30 01:11:16;;;;;;;;;;;;;;;29.88;49.33;98492.19;2075557;28;19988;-55
2022/07/30 01:12:20;;;;;;;;;;;;;;;29.88;49.33;98493.00;2079573;28;20574;-56
2022/07/30 01:13:21;;;;;;;;;;;;;;;29.89;49.45;98499.28;2073103;28;19932;-53
2022/07/30 01:14:23;;;;;;;;;;;;;;;29.90;49.49;98492.75;2072804;28;19933;-53
2022/07/30 01:15:24;;;;;;;;;;;;;;;29.89;49.19;98493.81;2077603;28;19940;-53
2022/07/30 01:16:26;;;;;;;;;;;;;;;29.84;49.54;98500.97;2080660;28;21064;-51
2022/07/30 01:17:26;;;;;;;;;;;;;;;29.88;49.25;98503.13;2080038;28;20013;-52
2022/07/30 01:19:47;;;;;;;;;;;;;;;29.85;49.40;98493.56;2080567;28;19935;-54
2022/07/30 01:19:51;;;;;;;;;;;;;;;29.83;49.55;98498.50;2071631;28;19960;-54
2022/07/30 01:21:08;;;;;;;;;;;;;;;29.82;49.46;98494.97;2075253;28;19933;-52
2022/07/30 01:22:12;;;;;;;;;;;;;;;29.81;49.42;98492.50;2076552;28;20339;-52
2022/07/30 01:23:16;;;;;;;;;;;;;;;29.82;49.48;98497.69;2076065;28;19940;-54
2022/07/30 01:24:22;;;;;;;;;;;;;;;29.79;49.28;98490.06;2076305;28;20313;-53
2022/07/30 01:25:28;;;;;;;;;;;;;;;29.78;49.25;98482.97;2075027;28;19936;-54
2022/07/30 01:26:31;;;;;;;;;;;;;;;29.78;49.08;98490.31;2075325;28;19933;-52
2022/07/30 01:27:33;;;;;;;;;;;;;;;29.79;49.13;98492.78;2073926;28;19932;-54
2022/07/30 01:28:36;;;;;;;;;;;;;;;29.80;48.91;98486.22;2073922;28;20008;-56
2022/07/30 01:29:38;;;;;;;;;;;;;;;29.79;49.00;98490.06;2073857;28;19928;-51
2022/07/30 01:30:40;;;;;;;;;;;;;;;29.80;49.01;98485.41;2074800;28;19929;-51
2022/07/30 01:31:42;;;;;;;;;;;;;;;29.82;48.92;98489.50;2074063;28;19935;-54
2022/07/30 01:32:45;;;;;;;;;;;;;;;29.82;49.02;98488.69;2077575;28;19929;-55
2022/07/30 01:33:47;;;;;;;;;;;;;;;29.81;48.91;98500.69;2074919;28;20008;-55
2022/07/30 01:34:50;;;;;;;;;;;;;;;29.80;48.80;98490.88;2078186;28;19929;-54
2022/07/30 01:35:52;;;;;;;;;;;;;;;29.81;48.78;98492.50;2076548;28;20749;-55
2022/07/30 01:36:54;;;;;;;;;;;;;;;29.80;48.72;98490.88;2080876;28;20016;-53
2022/07/30 01:37:59;;;;;;;;;;;;;;;29.78;48.82;98487.59;2079996;28;19935;-53
2022/07/30 01:39:00;;;;;;;;;;;;;;;29.79;48.75;98483.78;2080196;28;20364;-51
2022/07/30 01:40:02;;;;;;;;;;;;;;;29.81;48.67;98478.81;2074072;28;19979;-54
2022/07/30 01:41:05;;;;;;;;;;;;;;;29.78;48.58;98482.13;2074984;28;23843;-54
2022/07/30 01:42:09;;;;;;;;;;;;;;;29.75;48.73;98488.97;2074053;28;19933;-55
2022/07/30 01:43:12;;;;;;;;;;;;;;;29.78;48.52;98482.13;2072968;28;19940;-52
2022/07/30 01:44:13;;;;;;;;;;;;;;;29.72;48.80;98486.78;2073606;28;19990;-55
2022/07/30 01:45:15;;;;;;;;;;;;;;;29.73;48.71;98491.19;2078301;28;20003;-53
2022/07/30 01:46:16;;;;;;;;;;;;;;;29.75;48.53;98485.41;2073454;28;20928;-54
2022/07/30 01:47:19;;;;;;;;;;;;;;;29.72;48.51;98483.25;2077044;28;19962;-56
2022/07/30 01:48:22;;;;;;;;;;;;;;;29.72;48.62;98477.78;2075524;28;19963;-54
2022/07/30 01:49:25;;;;;;;;;;;;;;;29.71;48.67;98489.81;2075194;28;20055;-53
2022/07/30 01:50:27;;;;;;;;;;;;;;;29.74;48.56;98481.06;2080197;28;19979;-53
2022/07/30 01:51:30;;;;;;;;;;;;;;;29.74;48.52;98481.06;2077826;28;19940;-54
2022/07/30 01:52:31;;;;;;;;;;;;;;;29.72;48.54;98483.25;2080758;28;20521;-54
2022/07/30 01:53:36;;;;;;;;;;;;;;;29.73;48.54;98482.16;2079590;28;19970;-54
2022/07/30 01:54:38;;;;;;;;;;;;;;;29.72;48.74;98481.31;2079592;28;19936;-48
2022/07/30 01:55:40;;;;;;;;;;;;;;;29.74;48.78;98481.06;2075437;28;19939;-52
2022/07/30 01:56:41;;;;;;;;;;;;;;;29.73;48.52;98474.78;2074998;28;19929;-54
2022/07/30 01:57:46;;;;;;;;;;;;;;;29.74;48.68;98481.06;2073431;28;19929;-51
2022/07/30 01:58:47;;;;;;;;;;;;;;;29.72;48.77;98489.53;2076566;28;19929;-51
2022/07/30 01:59:52;;;;;;;;;;;;;;;29.73;48.71;98484.91;2076453;28;19932;-48
2022/07/30 02:00:53;;;;;;;;;;;;;;;29.73;48.67;98485.72;2073937;28;19932;-55
2022/07/30 02:01:55;;;;;;;;;;;;;;;29.78;48.47;98487.59;2074210;28;19975;-52
2022/07/30 02:02:56;;;;;;;;;;;;;;;29.76;48.59;98484.34;2079983;28;20399;-53
2022/07/30 02:03:58;;;;;;;;;;;;;;;29.73;48.42;98482.97;2079208;28;20015;-50
2022/07/30 02:04:58;;;;;;;;;;;;;;;29.75;48.51;98471.75;2081353;28;19928;-55
2022/07/30 02:06:01;;;;;;;;;;;;;;;29.75;48.58;98478.03;2079732;28;19939;-52
2022/07/30 02:07:03;;;;;;;;;;;;;;;29.72;48.58;98483.25;2072956;28;20020;-54
2022/07/30 02:08:07;;;;;;;;;;;;;;;29.72;48.58;98477.78;2077070;28;20524;-53
2022/07/30 02:09:09;;;;;;;;;;;;;;;29.69;48.92;98478.34;2075163;28;20280;-53
2022/07/30 02:10:12;;;;;;;;;;;;;;;29.69;48.78;98475.63;2075049;28;20335;-53
2022/07/30 02:11:14;;;;;;;;;;;;;;;29.73;48.84;98473.97;2077590;28;19929;-54
2022/07/30 02:12:30;;;;;;;;;;;;;;;29.72;48.67;98473.13;2072472;28;19929;-56
2022/07/30 02:13:34;;;;;;;;;;;;;;;29.70;48.77;98469.03;2079647;28;19936;-49
2022/07/30 02:14:38;;;;;;;;;;;;;;;29.70;48.80;98463.56;2078253;28;19928;-54
2022/07/30 02:15:42;;;;;;;;;;;;;;;29.72;48.79;98466.84;2076161;28;19987;-52
2022/07/30 02:16:44;;;;;;;;;;;;;;;29.72;48.73;98458.66;2077883;28;19935;-51
2022/07/30 02:17:50;;;;;;;;;;;;;;;29.72;48.71;98469.59;2072484;28;20529;-55
2022/07/30 02:18:55;;;;;;;;;;;;;;;29.69;49.00;98472.88;2074445;28;19928;-56
2022/07/30 02:19:59;;;;;;;;;;;;;;;29.73;48.72;98465.78;2072071;28;19940;-52
2022/07/30 02:21:01;;;;;;;;;;;;;;;29.74;48.56;98456.47;2077607;28;19937;-51
2022/07/30 02:22:05;;;;;;;;;;;;;;;29.71;48.91;98463.31;2074329;28;19932;-54
2022/07/30 02:23:10;;;;;;;;;;;;;;;29.66;48.98;98462.50;2076005;28;20153;-53
2022/07/30 02:24:12;;;;;;;;;;;;;;;29.66;49.08;98462.50;2075064;28;23251;-53
2022/07/30 02:25:15;;;;;;;;;;;;;;;29.68;48.95;98465.78;2073872;28;19932;-54
2022/07/30 02:26:17;;;;;;;;;;;;;;;29.66;49.03;98455.13;2077344;28;20348;-53
2022/07/30 02:27:24;;;;;;;;;;;;;;;29.63;49.32;98458.41;2075377;28;20006;-53
2022/07/30 02:28:25;;;;;;;;;;;;;;;29.65;49.18;98455.41;2073690;28;19924;-55
2022/07/30 02:29:29;;;;;;;;;;;;;;;29.64;49.20;98456.50;2075808;28;19929;-54
2022/07/30 02:30:30;;;;;;;;;;;;;;;29.64;49.10;98453.75;2074406;28;19932;-55
2022/07/30 02:31:33;;;;;;;;;;;;;;;29.64;49.11;98454.56;2069633;28;19929;-52
2022/07/30 02:32:34;;;;;;;;;;;;;;;29.66;48.97;98451.56;2080010;28;20328;-52
2022/07/30 02:33:37;;;;;;;;;;;;;;;29.67;49.02;98453.19;2078062;28;20605;-54
2022/07/30 02:34:39;;;;;;;;;;;;;;;29.65;49.13;98456.22;2078235;28;19944;-53
2022/07/30 02:35:41;;;;;;;;;;;;;;;29.62;49.17;98449.38;2076810;28;19933;-50
2022/07/30 02:36:43;;;;;;;;;;;;;;;29.60;49.29;98443.38;2078532;28;19941;-53
2022/07/30 02:37:45;;;;;;;;;;;;;;;29.58;49.45;98447.47;2073263;28;19955;-53
2022/07/30 02:38:46;;;;;;;;;;;;;;;29.58;49.24;98440.09;2077977;28;19925;-54
2022/07/30 02:39:48;;;;;;;;;;;;;;;29.56;49.24;98445.03;2072285;28;19956;-56
2022/07/30 02:40:49;;;;;;;;;;;;;;;29.59;49.33;98435.47;2078477;28;19933;-52
2022/07/30 02:41:52;;;;;;;;;;;;;;;29.62;49.32;98443.09;2074026;28;20011;-53
2022/07/30 02:42:53;;;;;;;;;;;;;;;29.59;49.34;98438.19;2076984;28;19932;-55
2022/07/30 02:43:55;;;;;;;;;;;;;;;29.60;49.38;98442.56;2076157;28;19936;-51
2022/07/30 02:44:57;;;;;;;;;;;;;;;29.59;49.30;98441.75;2078331;28;19929;-51
2022/07/30 02:46:00;;;;;;;;;;;;;;;29.61;49.42;98441.44;2073881;28;20027;-55
2022/07/30 02:47:01;;;;;;;;;;;;;;;29.60;49.23;98432.44;2079502;28;19940;-51
2022/07/30 02:48:05;;;;;;;;;;;;;;;29.61;49.41;98431.34;2072633;28;20063;-53
2022/07/30 02:49:08;;;;;;;;;;;;;;;29.65;49.29;98428.09;2078335;28;20021;-54
2022/07/30 02:50:10;;;;;;;;;;;;;;;29.60;49.37;98423.44;2072331;28;20613;-50
2022/07/30 02:51:14;;;;;;;;;;;;;;;29.60;49.51;98437.09;2076429;28;19928;-51
2022/07/30 02:52:16;;;;;;;;;;;;;;;29.58;49.55;98434.63;2076014;28;19935;-52
2022/07/30 02:53:17;;;;;;;;;;;;;;;29.54;49.92;98430.84;2077525;28;20403;-50
2022/07/30 02:54:20;;;;;;;;;;;;;;;29.56;49.49;98427.81;2076286;28;19933;-54
2022/07/30 02:55:21;;;;;;;;;;;;;;;29.57;49.64;98426.72;2077666;28;20027;-55
2022/07/30 02:56:24;;;;;;;;;;;;;;;29.59;49.66;98428.06;2074943;28;20004;-51
2022/07/30 02:57:26;;;;;;;;;;;;;;;29.61;49.50;98425.88;2078547;28;19929;-52
2022/07/30 02:58:28;;;;;;;;;;;;;;;29.56;49.81;98431.38;2073855;28;19944;-54
2022/07/30 02:59:30;;;;;;;;;;;;;;;29.57;49.65;98430.28;2076380;28;19935;-54
2022/07/30 03:00:33;;;;;;;;;;;;;;;29.54;49.69;98439.03;2076763;28;19935;-55
2022/07/30 03:01:34;;;;;;;;;;;;;;;29.58;49.65;98440.09;2075599;28;20011;-54
2022/07/30 03:02:36;;;;;;;;;;;;;;;29.56;49.60;98439.56;2075005;28;19999;-54
2022/07/30 03:03:37;;;;;;;;;;;;;;;29.58;49.79;98436.53;2077235;28;19940;-54
2022/07/30 03:04:39;;;;;;;;;;;;;;;29.60;49.76;98434.34;2073612;28;19932;-50
2022/07/30 03:05:40;;;;;;;;;;;;;;;29.58;49.51;98433.81;2072440;28;20792;-52
2022/07/30 03:06:43;;;;;;;;;;;;;;;29.55;49.65;98434.38;2076574;28;19929;-54
2022/07/30 03:07:44;;;;;;;;;;;;;;;29.56;49.74;98442.31;2073041;28;19937;-52
2022/07/30 03:08:46;;;;;;;;;;;;;;;29.53;49.61;98434.69;2079079;28;19983;-52
2022/07/30 03:09:48;;;;;;;;;;;;;;;29.53;49.70;98431.94;2076417;28;19994;-55
2022/07/30 03:10:51;;;;;;;;;;;;;;;29.52;49.78;98438.47;2072774;28;20241;-53
2022/07/30 03:11:52;;;;;;;;;;;;;;;29.50;49.75;98432.47;2075328;28;19935;-54
2022/07/30 03:12:55;;;;;;;;;;;;;;;29.48;49.88;98442.06;2079406;28;19929;-55
2022/07/30 03:13:55;;;;;;;;;;;;;;;29.48;49.74;98440.16;2074402;28;19996;-55
2022/07/30 03:14:57;;;;;;;;;;;;;;;29.47;49.75;98438.50;2074113;28;19939;-53
2022/07/30 03:16:02;;;;;;;;;;;;;;;29.49;49.74;98444.50;2073856;28;19944;-54
2022/07/30 03:17:05;;;;;;;;;;;;;;;29.48;50.01;98445.63;2076452;28;19936;-55
2022/07/30 03:18:07;;;;;;;;;;;;;;;29.48;49.93;98440.16;2074715;28;21120;-55
2022/07/30 03:19:08;;;;;;;;;;;;;;;29.49;49.69;98443.69;2075905;28;19933;-54
2022/07/30 03:20:13;;;;;;;;;;;;;;;29.49;49.70;98443.69;2078779;28;20507;-55
2022/07/30 03:21:14;;;;;;;;;;;;;;;29.49;49.60;98444.50;2072977;28;19929;-55
2022/07/30 03:22:17;;;;;;;;;;;;;;;29.47;49.74;98441.22;2072271;28;20024;-55
2022/07/30 03:23:18;;;;;;;;;;;;;;;29.47;49.61;98427.56;2079097;28;19929;-50
2022/07/30 03:24:22;;;;;;;;;;;;;;;29.46;49.75;98436.88;2073129;28;19940;-52
2022/07/30 03:25:24;;;;;;;;;;;;;;;29.47;49.64;98430.31;2076827;28;20465;-52
2022/07/30 03:26:27;;;;;;;;;;;;;;;29.47;49.72;98424.03;2078724;28;19929;-55
2022/07/30 03:27:29;;;;;;;;;;;;;;;29.48;49.70;98426.50;2078847;28;19936;-52
2022/07/30 03:28:32;;;;;;;;;;;;;;;29.48;49.63;98431.16;2072815;28;20024;-52
2022/07/30 03:29:33;;;;;;;;;;;;;;;29.48;49.75;98433.88;2075794;28;19928;-52
2022/07/30 03:30:35;;;;;;;;;;;;;;;29.49;49.69;98427.31;2073627;28;20016;-54
2022/07/30 03:31:38;;;;;;;;;;;;;;;29.48;49.74;98426.50;2078891;28;20973;-52
2022/07/30 03:32:40;;;;;;;;;;;;;;;29.49;49.73;98422.66;2079680;28;19932;-51
2022/07/30 03:33:42;;;;;;;;;;;;;;;29.45;49.67;98418.88;2074798;28;19933;-54
2022/07/30 03:34:43;;;;;;;;;;;;;;;29.46;49.74;98409.56;2077563;28;19936;-52
2022/07/30 03:35:45;;;;;;;;;;;;;;;29.43;49.91;98412.03;2076723;28;19935;-52
2022/07/30 03:36:47;;;;;;;;;;;;;;;29.43;49.92;98412.84;2075165;28;19925;-53
2022/07/30 03:37:48;;;;;;;;;;;;;;;29.42;49.84;98418.59;2074540;28;20623;-53
2022/07/30 03:38:50;;;;;;;;;;;;;;;29.44;49.99;98419.13;2076716;28;19932;-52
2022/07/30 03:39:52;;;;;;;;;;;;;;;29.44;49.91;98419.94;2077326;28;19929;-54
2022/07/30 03:40:54;;;;;;;;;;;;;;;29.42;49.91;98422.16;2078378;28;20051;-55
2022/07/30 03:41:55;;;;;;;;;;;;;;;29.40;50.23;98416.16;2068075;28;20049;-53
2022/07/30 03:42:57;;;;;;;;;;;;;;;29.42;50.25;98413.13;2078650;28;19929;-51
2022/07/30 03:43:59;;;;;;;;;;;;;;;29.44;50.30;98417.22;2077605;28;20362;-52
2022/07/30 03:45:01;;;;;;;;;;;;;;;29.43;50.10;98421.06;2072857;28;20015;-52
2022/07/30 03:46:02;;;;;;;;;;;;;;;29.39;50.35;98425.41;2078161;28;20507;-50
2022/07/30 03:47:06;;;;;;;;;;;;;;;29.40;50.40;98427.88;2079253;28;19929;-52
2022/07/30 03:48:08;;;;;;;;;;;;;;;29.40;50.42;98435.28;2073611;28;20566;-56
2022/07/30 03:49:10;;;;;;;;;;;;;;;29.39;50.48;98441.81;2074853;28;20684;-54
2022/07/30 03:50:11;;;;;;;;;;;;;;;29.38;50.36;98440.19;2075330;28;20625;-54
2022/07/30 03:51:12;;;;;;;;;;;;;;;29.41;50.18;98436.91;2076006;28;19939;-51
2022/07/30 03:52:13;;;;;;;;;;;;;;;29.40;50.29;98433.34;2072959;28;19935;-55
2022/07/30 03:53:16;;;;;;;;;;;;;;;29.42;50.19;98421.31;2078128;28;19951;-52
2022/07/30 03:54:18;;;;;;;;;;;;;;;29.42;50.19;98429.50;2075487;28;19933;-52
2022/07/30 03:55:19;;;;;;;;;;;;;;;29.37;50.59;98423.00;2075087;28;19933;-51
2022/07/30 03:56:20;;;;;;;;;;;;;;;29.36;50.49;98423.25;2075326;28;19940;-54
2022/07/30 03:57:22;;;;;;;;;;;;;;;29.33;50.52;98427.34;2077699;28;20525;-55
2022/07/30 03:58:23;;;;;;;;;;;;;;;29.34;50.43;98428.19;2075426;28;19928;-52
2022/07/30 03:59:24;;;;;;;;;;;;;;;29.35;50.58;98435.28;2075522;28;19924;-53
2022/07/30 04:00:26;;;;;;;;;;;;;;;29.31;50.57;98434.19;2073710;28;19928;-52
2022/07/30 04:01:27;;;;;;;;;;;;;;;29.34;50.60;98439.13;2073048;28;20563;-50
2022/07/30 04:02:29;;;;;;;;;;;;;;;29.35;50.61;98440.75;2075727;28;19933;-53
2022/07/30 04:03:32;;;;;;;;;;;;;;;29.35;50.79;98451.69;2076574;28;20019;-54
2022/07/30 04:04:32;;;;;;;;;;;;;;;29.31;50.96;98439.66;2075724;28;20279;-54
2022/07/30 04:05:34;;;;;;;;;;;;;;;29.32;50.79;98447.59;2076274;28;19936;-54
2022/07/30 04:06:38;;;;;;;;;;;;;;;29.32;50.79;98446.78;2077911;28;19929;-54
2022/07/30 04:07:40;;;;;;;;;;;;;;;29.31;50.90;98443.22;2074734;28;19933;-55
2022/07/30 04:08:40;;;;;;;;;;;;;;;29.31;50.93;98445.13;2076787;28;19932;-54
2022/07/30 04:09:42;;;;;;;;;;;;;;;29.24;51.10;98436.44;2078050;28;19928;-55
2022/07/30 04:10:42;;;;;;;;;;;;;;;29.23;51.25;98437.53;2077539;28;19928;-53
2022/07/30 04:11:44;;;;;;;;;;;;;;;29.24;51.09;98441.88;2079426;28;19928;-55
2022/07/30 04:12:44;;;;;;;;;;;;;;;29.25;51.13;98451.69;2079200;28;19951;-52
2022/07/30 04:13:46;;;;;;;;;;;;;;;29.29;51.08;98461.00;2081078;28;20502;-55
2022/07/30 04:14:46;;;;;;;;;;;;;;;29.29;51.04;98461.81;2075413;28;19929;-56
2022/07/30 04:15:51;;;;;;;;;;;;;;;29.30;51.27;98462.63;2082000;28;20015;-56
2022/07/30 04:16:55;;;;;;;;;;;;;;;29.32;50.99;98465.91;2082753;28;19924;-52
2022/07/30 04:18:01;;;;;;;;;;;;;;;29.31;51.11;98458.78;2082083;28;20027;-52
2022/07/30 04:19:05;;;;;;;;;;;;;;;29.31;51.00;98456.06;2074184;28;19932;-53
2022/07/30 04:20:08;;;;;;;;;;;;;;;29.34;50.89;98461.78;2078947;28;21174;-54
2022/07/30 04:21:09;;;;;;;;;;;;;;;29.34;51.15;98466.44;2080897;28;19935;-52
2022/07/30 04:22:12;;;;;;;;;;;;;;;29.31;51.08;98462.34;2078174;28;19955;-53
2022/07/30 04:23:14;;;;;;;;;;;;;;;29.29;51.12;98458.25;2075653;28;19939;-53
2022/07/30 04:24:17;;;;;;;;;;;;;;;29.30;51.14;98466.16;2076220;28;19939;-55
2022/07/30 04:25:18;;;;;;;;;;;;;;;29.31;51.08;98458.78;2077783;28;23177;-53
2022/07/30 04:26:21;;;;;;;;;;;;;;;29.30;51.35;98459.88;2076971;28;20003;-52
2022/07/30 04:27:24;;;;;;;;;;;;;;;29.25;51.39;98465.38;2079493;28;19933;-54
2022/07/30 04:28:26;;;;;;;;;;;;;;;29.27;51.30;98471.38;2077386;28;20102;-50
2022/07/30 04:29:27;;;;;;;;;;;;;;;29.27;51.37;98472.19;2077735;28;20567;-54
2022/07/30 04:30:29;;;;;;;;;;;;;;;29.25;51.46;98487.22;2074533;28;20075;-52
2022/07/30 04:31:34;;;;;;;;;;;;;;;29.22;51.47;98474.94;2075229;28;19939;-53
2022/07/30 04:32:36;;;;;;;;;;;;;;;29.27;51.53;98476.84;2077421;28;19929;-55
2022/07/30 04:33:37;;;;;;;;;;;;;;;29.27;51.01;98477.66;2079553;28;19936;-53
2022/07/30 04:34:45;;;;;;;;;;;;;;;29.31;51.10;98476.00;2077492;28;19940;-53
2022/07/30 04:35:46;;;;;;;;;;;;;;;29.31;50.91;98476.00;2078358;28;19974;-55
2022/07/30 04:36:48;;;;;;;;;;;;;;;29.31;51.17;98475.16;2073749;28;19924;-53
2022/07/30 04:37:48;;;;;;;;;;;;;;;29.33;50.98;98473.81;2074127;28;19936;-54
2022/07/30 04:38:50;;;;;;;;;;;;;;;29.33;50.96;98470.25;2074087;28;19932;-53
2022/07/30 04:39:53;;;;;;;;;;;;;;;29.34;50.87;98471.91;2080761;28;19936;-56
2022/07/30 04:40:55;;;;;;;;;;;;;;;29.32;50.97;98474.91;2079485;28;19933;-50
2022/07/30 04:41:55;;;;;;;;;;;;;;;29.34;51.15;98474.66;2077130;28;19939;-50
2022/07/30 04:42:57;;;;;;;;;;;;;;;29.31;51.15;98467.81;2072892;28;19929;-55
2022/07/30 04:43:57;;;;;;;;;;;;;;;29.35;51.05;98484.47;2074402;28;19933;-50
2022/07/30 04:44:59;;;;;;;;;;;;;;;29.34;51.13;98469.19;2079095;28;19928;-53
2022/07/30 04:46:00;;;;;;;;;;;;;;;29.33;51.08;98471.06;2071291;28;19933;-52
2022/07/30 04:47:02;;;;;;;;;;;;;;;29.33;51.19;98470.25;2072354;28;22816;-49
2022/07/30 04:48:02;;;;;;;;;;;;;;;29.31;51.33;98476.00;2073675;28;19971;-52
2022/07/30 04:49:05;;;;;;;;;;;;;;;29.32;51.21;98477.63;2074404;28;19936;-53
2022/07/30 04:50:06;;;;;;;;;;;;;;;29.28;51.36;98473.84;2073321;28;19933;-53
2022/07/30 04:51:12;;;;;;;;;;;;;;;29.27;51.40;98474.91;2075015;28;20015;-51
2022/07/30 04:52:13;;;;;;;;;;;;;;;29.27;51.43;98465.91;2073999;28;19932;-51
2022/07/30 04:53:15;;;;;;;;;;;;;;;29.27;51.52;98466.72;2076099;28;19929;-54
2022/07/30 04:54:17;;;;;;;;;;;;;;;29.27;51.56;98471.38;2074081;28;19933;-53
2022/07/30 04:55:20;;;;;;;;;;;;;;;29.25;51.46;98474.38;2074391;28;19989;-53
2022/07/30 04:56:21;;;;;;;;;;;;;;;29.26;51.40;98480.69;2075884;28;20310;-54
2022/07/30 04:57:24;;;;;;;;;;;;;;;29.27;51.61;98482.31;2075682;28;20070;-52
2022/07/30 04:58:27;;;;;;;;;;;;;;;29.27;51.02;98483.13;2075687;28;20553;-51
2022/07/30 04:59:28;;;;;;;;;;;;;;;29.28;51.43;98487.50;2076063;28;20390;-53
2022/07/30 05:00:29;;;;;;;;;;;;;;;29.30;51.51;98488.00;2077767;28;19984;-53
2022/07/30 05:01:32;;;;;;;;;;;;;;;29.30;51.50;98489.94;2075744;28;20615;-51
2022/07/30 05:02:34;;;;;;;;;;;;;;;29.32;51.47;98488.56;2074638;28;19932;-52
2022/07/30 05:03:37;;;;;;;;;;;;;;;29.30;51.46;98488.00;2075421;28;20319;-52
2022/07/30 05:04:39;;;;;;;;;;;;;;;29.31;51.40;98486.94;2072581;28;20026;-52
2022/07/30 05:05:41;;;;;;;;;;;;;;;29.29;51.38;98488.31;2074832;28;20884;-51
2022/07/30 05:06:42;;;;;;;;;;;;;;;29.30;51.47;98488.00;2074786;28;20161;-54
2022/07/30 05:07:44;;;;;;;;;;;;;;;29.27;51.46;98477.66;2075072;28;19933;-51
2022/07/30 05:08:45;;;;;;;;;;;;;;;29.24;51.74;98475.47;2074285;28;19928;-53
2022/07/30 05:09:46;;;;;;;;;;;;;;;29.26;51.67;98486.94;2076740;28;19924;-56
2022/07/30 05:10:47;;;;;;;;;;;;;;;29.25;51.71;98484.47;2081553;28;20247;-54
2022/07/30 05:11:52;;;;;;;;;;;;;;;29.28;51.70;98483.94;2082159;28;19972;-50
2022/07/30 05:12:52;;;;;;;;;;;;;;;29.28;51.70;98484.75;2080543;28;20937;-50
2022/07/30 05:13:54;;;;;;;;;;;;;;;29.28;51.88;98489.38;2080316;28;19941;-54
2022/07/30 05:14:54;;;;;;;;;;;;;;;29.27;51.97;98487.75;2073953;28;20013;-51
2022/07/30 05:15:56;;;;;;;;;;;;;;;29.25;51.83;98489.94;2078804;28;20058;-55
2022/07/30 05:16:57;;;;;;;;;;;;;;;29.25;51.88;98485.28;2075742;28;20555;-51
2022/07/30 05:17:59;;;;;;;;;;;;;;;29.27;52.05;98491.31;2073349;28;20009;-54
2022/07/30 05:19:00;;;;;;;;;;;;;;;29.29;52.12;98491.84;2075412;28;19929;-53
2022/07/30 05:20:02;;;;;;;;;;;;;;;29.30;51.95;98498.13;2074871;28;19932;-52
2022/07/30 05:21:04;;;;;;;;;;;;;;;29.28;52.18;98501.16;2073237;28;20477;-54
2022/07/30 05:22:05;;;;;;;;;;;;;;;29.29;52.29;98497.31;2071607;28;19925;-51
2022/07/30 05:23:06;;;;;;;;;;;;;;;29.30;52.16;98498.13;2075657;28;20554;-53
2022/07/30 05:24:07;;;;;;;;;;;;;;;29.31;52.15;98500.59;2073602;28;19993;-53